createdAt,value
2023-01-07T00:01:44.603Z,100646.98
2023-01-07T00:04:15.604Z,100646.77
2023-01-07T00:06:45.433Z,100641.34
2023-01-07T00:09:16.863Z,100637.70
2023-01-07T00:11:46.037Z,100634.44
2023-01-07T00:14:15.436Z,100626.81
2023-01-07T00:16:44.176Z,100625.48
2023-01-07T00:19:15.954Z,100622.22
2023-01-07T00:21:44.373Z,100626.92
2023-01-07T00:24:13.270Z,100631.83
2023-01-07T00:26:41.992Z,100635.52
2023-01-07T00:29:10.635Z,100633.86
2023-01-07T00:31:40.655Z,100633.25
2023-01-07T00:34:09.786Z,100631.05
2023-01-07T00:36:46.952Z,100636.40
2023-01-07T00:39:20.964Z,100634.91
2023-01-07T00:42:08.640Z,100629.85
2023-01-07T00:44:38.134Z,100627.80
2023-01-07T00:47:06.712Z,100621.31
2023-01-07T00:49:35.197Z,100622.52
2023-01-07T00:52:03.796Z,100630.85
2023-01-07T00:54:32.273Z,100633.47
2023-01-07T00:57:00.714Z,100640.23
2023-01-07T00:59:53.838Z,100636.40
2023-01-07T01:02:22.421Z,100641.81
2023-01-07T01:04:50.894Z,100644.14
2023-01-07T01:07:19.232Z,100641.70
2023-01-07T01:09:47.674Z,100640.34
2023-01-07T01:12:16.121Z,100643.96
2023-01-07T01:14:44.599Z,100645.56
2023-01-07T01:17:13.033Z,100639.06
2023-01-07T01:19:41.394Z,100636.73
2023-01-07T01:22:09.933Z,100640.23
2023-01-07T01:24:38.294Z,100646.27
2023-01-07T01:27:06.693Z,100651.44
2023-01-07T01:29:35.074Z,100654.81
2023-01-07T01:32:03.614Z,100653.35
2023-01-07T01:34:32.115Z,100657.41
2023-01-07T01:37:00.432Z,100655.38
2023-01-07T01:39:28.912Z,100658.86
2023-01-07T01:41:57.278Z,100656.90
2023-01-07T01:44:44.274Z,100658.23
2023-01-07T01:47:27.715Z,100656.16
2023-01-07T01:50:05.792Z,100649.90
2023-01-07T01:52:40.383Z,100640.59
2023-01-07T01:55:10.532Z,100631.95
2023-01-07T01:57:40.442Z,100631.41
2023-01-07T02:00:10.380Z,100633.85
2023-01-07T02:02:47.460Z,100643.42
2023-01-07T02:05:16.807Z,100646.41
2023-01-07T02:07:45.219Z,100649.70
2023-01-07T02:10:22.361Z,100648.52
2023-01-07T02:12:51.132Z,100647.88
2023-01-07T02:15:31.720Z,100654.80
2023-01-07T02:18:43.345Z,100662.36
2023-01-07T02:21:33.562Z,100664.19
2023-01-07T02:24:20.270Z,100665.27
2023-01-07T02:27:21.990Z,100673.92
2023-01-07T02:29:56.061Z,100671.88
2023-01-07T02:32:46.945Z,100670.90
2023-01-07T02:35:24.320Z,100665.38
2023-01-07T02:38:19.048Z,100657.06
2023-01-07T02:40:56.582Z,100649.64
2023-01-07T02:43:43.670Z,100651.39
2023-01-07T02:46:31.663Z,100650.50
2023-01-07T02:49:01.258Z,100649.77
2023-01-07T02:51:38.039Z,100648.14
2023-01-07T02:54:11.839Z,100646.69
2023-01-07T02:56:55.279Z,100646.15
2023-01-07T03:00:00.419Z,100648.86
2023-01-07T03:02:34.529Z,100651.14
2023-01-07T03:05:08.576Z,100654.92
2023-01-07T03:08:02.653Z,100656.70
2023-01-07T03:10:52.829Z,100656.02
2023-01-07T03:13:27.290Z,100660.30
2023-01-07T03:16:06.413Z,100664.89
2023-01-07T03:18:43.717Z,100662.27
2023-01-07T03:21:16.416Z,100665.73
2023-01-07T03:23:50.912Z,100667.08
2023-01-07T03:26:27.202Z,100666.52
2023-01-07T03:28:59.571Z,100662.32
2023-01-07T03:31:29.601Z,100664.48
2023-01-07T03:34:08.812Z,100661.18
2023-01-07T03:36:43.677Z,100663.63
2023-01-07T03:39:13.952Z,100664.70
2023-01-07T03:42:00.702Z,100660.95
2023-01-07T03:44:29.135Z,100656.85
2023-01-07T03:46:57.496Z,100662.67
2023-01-07T03:49:26.050Z,100661.60
2023-01-07T03:51:55.024Z,100660.17
2023-01-07T03:54:26.366Z,100657.02
2023-01-07T03:56:54.884Z,100652.67
2023-01-07T04:00:00.883Z,100649.17
2023-01-07T04:02:29.341Z,100644.52
2023-01-07T04:04:57.824Z,100642.69
2023-01-07T04:07:26.274Z,100638.23
2023-01-07T04:09:54.498Z,100635.50
2023-01-07T04:12:22.935Z,100634.11
2023-01-07T04:14:51.294Z,100632.14
2023-01-07T04:17:19.707Z,100636.59
2023-01-07T04:19:48.147Z,100637.29
2023-01-07T04:22:16.670Z,100637.80
2023-01-07T04:24:45.107Z,100641.14
2023-01-07T04:27:13.441Z,100642.95
2023-01-07T04:29:41.967Z,100641.33
2023-01-07T04:32:10.406Z,100641.98
2023-01-07T04:34:38.836Z,100642.28
2023-01-07T04:37:07.268Z,100644.34
2023-01-07T04:39:35.603Z,100640.45
2023-01-07T04:42:04.032Z,100640.56
2023-01-07T04:44:32.449Z,100637.34
2023-01-07T04:47:00.809Z,100636.73
2023-01-07T04:49:29.280Z,100640.92
2023-01-07T04:51:57.555Z,100645.30
2023-01-07T04:54:25.885Z,100649.88
2023-01-07T04:56:54.349Z,100652.05
2023-01-07T04:59:42.972Z,100651.20
2023-01-07T05:02:11.483Z,100651.01
2023-01-07T05:04:39.998Z,100652.08
2023-01-07T05:07:08.406Z,100647.77
2023-01-07T05:09:36.990Z,100644.55
2023-01-07T05:12:05.679Z,100642.95
2023-01-07T05:14:34.130Z,100641.05
2023-01-07T05:17:02.697Z,100642.38
2023-01-07T05:19:31.155Z,100635.98
2023-01-07T05:22:00.880Z,100637.89
2023-01-07T05:24:29.454Z,100638.79
2023-01-07T05:26:57.975Z,100634.81
2023-01-07T05:29:26.392Z,100631.66
2023-01-07T05:31:54.827Z,100636.33
2023-01-07T05:34:23.311Z,100635.04
2023-01-07T05:36:51.711Z,100634.61
2023-01-07T05:39:20.171Z,100637.96
2023-01-07T05:41:48.631Z,100641.00
2023-01-07T05:44:17.031Z,100638.39
2023-01-07T05:46:45.473Z,100640.92
2023-01-07T05:49:14.035Z,100644.14
2023-01-07T05:51:42.531Z,100646.68
2023-01-07T05:54:10.968Z,100643.77
2023-01-07T05:56:39.562Z,100647.36
2023-01-07T05:59:07.915Z,100644.95
2023-01-07T06:01:36.477Z,100649.73
2023-01-07T06:04:04.855Z,100652.15
2023-01-07T06:06:33.149Z,100656.77
2023-01-07T06:09:01.409Z,100662.79
2023-01-07T06:11:29.767Z,100663.73
2023-01-07T06:13:58.107Z,100665.47
2023-01-07T06:16:26.484Z,100668.86
2023-01-07T06:18:54.919Z,100665.98
2023-01-07T06:21:23.360Z,100667.08
2023-01-07T06:23:51.751Z,100666.16
2023-01-07T06:26:20.397Z,100669.70
2023-01-07T06:28:48.818Z,100666.55
2023-01-07T06:31:17.198Z,100664.42
2023-01-07T06:33:45.664Z,100663.33
2023-01-07T06:36:14.214Z,100665.16
2023-01-07T06:38:42.691Z,100668.76
2023-01-07T06:41:11.048Z,100674.22
2023-01-07T06:43:39.434Z,100679.28
2023-01-07T06:46:08.090Z,100679.11
2023-01-07T06:48:36.658Z,100683.00
2023-01-07T06:51:05.102Z,100684.61
2023-01-07T06:53:33.593Z,100686.29
2023-01-07T06:56:01.976Z,100685.42
2023-01-07T06:58:30.551Z,100685.26
2023-01-07T07:01:04.693Z,100675.61
2023-01-07T07:03:34.384Z,100675.05
2023-01-07T07:06:02.827Z,100670.83
2023-01-07T07:08:31.208Z,100669.35
2023-01-07T07:10:59.579Z,100667.81
2023-01-07T07:13:27.876Z,100664.96
2023-01-07T07:15:56.240Z,100665.70
2023-01-07T07:18:24.685Z,100665.57
2023-01-07T07:20:52.973Z,100667.16
2023-01-07T07:23:21.337Z,100672.65
2023-01-07T07:25:49.588Z,100673.48
2023-01-07T07:28:17.944Z,100670.50
2023-01-07T07:30:47.564Z,100674.98
2023-01-07T07:33:19.683Z,100682.23
2023-01-07T07:35:48.301Z,100690.32
2023-01-07T07:38:18.162Z,100690.09
2023-01-07T07:40:47.258Z,100696.44
2023-01-07T07:43:16.423Z,100699.70
2023-01-07T07:45:45.364Z,100697.16
2023-01-07T07:48:15.965Z,100693.55
2023-01-07T07:50:44.365Z,100686.44
2023-01-07T07:53:12.846Z,100682.13
2023-01-07T07:55:41.794Z,100682.63
2023-01-07T07:58:10.260Z,100679.89
2023-01-07T08:00:57.612Z,100681.35
2023-01-07T08:03:26.152Z,100682.23
2023-01-07T08:05:54.536Z,100683.58
2023-01-07T08:08:23.056Z,100683.75
2023-01-07T08:10:51.392Z,100689.95
2023-01-07T08:13:19.815Z,100682.62
2023-01-07T08:15:48.244Z,100678.27
2023-01-07T08:18:16.891Z,100681.98
2023-01-07T08:20:45.286Z,100677.19
2023-01-07T08:23:13.704Z,100681.35
2023-01-07T08:25:42.687Z,100683.81
2023-01-07T08:28:11.940Z,100683.69
2023-01-07T08:30:40.625Z,100685.34
2023-01-07T08:33:09.176Z,100686.09
2023-01-07T08:35:37.627Z,100681.96
2023-01-07T08:38:08.431Z,100684.25
2023-01-07T08:40:37.755Z,100676.99
2023-01-07T08:43:08.502Z,100669.80
2023-01-07T08:45:37.391Z,100673.23
2023-01-07T08:48:06.324Z,100673.96
2023-01-07T08:50:34.869Z,100670.21
2023-01-07T08:53:03.498Z,100668.02
2023-01-07T08:55:31.923Z,100664.09
2023-01-07T08:58:00.327Z,100658.98
2023-01-07T09:00:46.875Z,100661.04
2023-01-07T09:03:15.484Z,100668.98
2023-01-07T09:05:44.364Z,100666.05
2023-01-07T09:08:12.865Z,100664.48
2023-01-07T09:10:41.271Z,100663.02
2023-01-07T09:13:09.730Z,100659.88
2023-01-07T09:15:38.072Z,100657.44
2023-01-07T09:18:07.215Z,100656.13
2023-01-07T09:20:35.644Z,100651.48
2023-01-07T09:23:04.055Z,100651.57
2023-01-07T09:25:32.620Z,100650.66
2023-01-07T09:28:01.200Z,100653.10
2023-01-07T09:30:29.697Z,100655.15
2023-01-07T09:32:58.097Z,100657.23
2023-01-07T09:35:26.508Z,100665.77
2023-01-07T09:37:54.927Z,100663.52
2023-01-07T09:40:38.457Z,100660.14
2023-01-07T09:43:08.204Z,100659.72
2023-01-07T09:45:58.847Z,100660.20
2023-01-07T09:48:35.329Z,100663.96
2023-01-07T09:51:19.802Z,100664.50
2023-01-07T09:53:52.437Z,100665.10
2023-01-07T09:56:25.711Z,100662.73
2023-01-07T09:58:57.772Z,100657.71
2023-01-07T10:01:30.617Z,100658.70
2023-01-07T10:04:17.317Z,100654.83
2023-01-07T10:06:54.430Z,100655.01
2023-01-07T10:09:40.667Z,100650.84
2023-01-07T10:12:23.607Z,100654.16
2023-01-07T10:15:03.662Z,100657.45
2023-01-07T10:18:06.485Z,100654.28
2023-01-07T10:20:35.265Z,100646.92
2023-01-07T10:23:26.259Z,100647.27
2023-01-07T10:25:56.814Z,100651.04
2023-01-07T10:29:00.428Z,100648.75
2023-01-07T10:31:30.062Z,100643.29
2023-01-07T10:33:59.816Z,100641.61
2023-01-07T10:36:28.551Z,100640.40
2023-01-07T10:39:14.714Z,100632.70
2023-01-07T10:41:48.911Z,100630.86
2023-01-07T10:44:30.181Z,100625.37
2023-01-07T10:47:09.255Z,100623.17
2023-01-07T10:49:58.644Z,100623.73
2023-01-07T10:52:38.807Z,100620.91
2023-01-07T10:55:22.400Z,100620.53
2023-01-07T10:57:50.945Z,100616.96
2023-01-07T11:00:20.868Z,100613.45
2023-01-07T11:02:56.962Z,100614.65
2023-01-07T11:05:37.322Z,100609.20
2023-01-07T11:08:13.233Z,100610.25
2023-01-07T11:10:42.062Z,100609.79
2023-01-07T11:13:16.972Z,100606.85
2023-01-07T11:15:54.955Z,100608.50
2023-01-07T11:18:35.700Z,100607.55
2023-01-07T11:21:04.112Z,100601.79
2023-01-07T11:23:42.698Z,100604.02
2023-01-07T11:26:25.535Z,100601.36
2023-01-07T11:29:03.034Z,100600.69
2023-01-07T11:31:53.906Z,100601.55
2023-01-07T11:34:30.685Z,100599.27
2023-01-07T11:36:59.333Z,100599.58
2023-01-07T11:39:36.154Z,100596.09
2023-01-07T11:42:35.672Z,100592.45
2023-01-07T11:45:25.127Z,100585.11
2023-01-07T11:47:59.347Z,100579.04
2023-01-07T11:51:03.021Z,100576.13
2023-01-07T11:53:51.002Z,100575.56
2023-01-07T11:56:22.197Z,100576.30
2023-01-07T11:59:46.983Z,100576.15
2023-01-07T12:02:28.010Z,100563.61
2023-01-07T12:05:19.294Z,100556.83
2023-01-07T12:07:51.947Z,100550.20
2023-01-07T12:10:33.543Z,100552.11
2023-01-07T12:13:32.543Z,100553.02
2023-01-07T12:16:02.277Z,100547.76
2023-01-07T12:18:50.170Z,100547.96
2023-01-07T12:21:50.108Z,100547.84
2023-01-07T12:24:56.509Z,100552.71
2023-01-07T12:30:37.377Z,100545.00
2023-01-07T12:33:17.777Z,100542.98
2023-01-07T12:35:46.256Z,100538.16
2023-01-07T12:38:46.776Z,100535.74
2023-01-07T12:41:21.047Z,100529.85
2023-01-07T12:44:02.927Z,100524.66
2023-01-07T12:47:32.107Z,100518.66
2023-01-07T12:50:01.542Z,100519.02
2023-01-07T12:52:41.984Z,100515.99
2023-01-07T12:55:28.911Z,100505.51
2023-01-07T12:58:11.022Z,100504.42
2023-01-07T13:01:07.045Z,100507.55
2023-01-07T13:03:58.524Z,100515.09
2023-01-07T13:06:50.340Z,100516.75
2023-01-07T13:09:29.063Z,100516.19
2023-01-07T13:12:45.929Z,100520.23
2023-01-07T13:15:34.001Z,100514.09
2023-01-07T13:18:16.366Z,100512.96
2023-01-07T13:21:07.897Z,100510.71
2023-01-07T13:23:56.801Z,100510.91
2023-01-07T13:26:31.320Z,100506.17
2023-01-07T13:29:21.125Z,100511.15
2023-01-07T13:32:31.205Z,100510.15
2023-01-07T13:35:14.564Z,100509.54
2023-01-07T13:38:03.822Z,100504.89
2023-01-07T13:40:50.449Z,100505.98
2023-01-07T13:43:34.162Z,100506.09
2023-01-07T13:46:29.811Z,100506.56
2023-01-07T13:48:58.355Z,100511.09
2023-01-07T13:51:33.354Z,100509.91
2023-01-07T13:54:02.293Z,100511.95
2023-01-07T13:56:36.332Z,100509.38
2023-01-07T13:59:04.943Z,100513.92
2023-01-07T14:01:34.409Z,100518.68
2023-01-07T14:04:07.252Z,100519.24
2023-01-07T14:06:45.115Z,100516.14
2023-01-07T14:09:21.792Z,100517.19
2023-01-07T14:12:17.995Z,100519.30
2023-01-07T14:15:07.292Z,100519.84
2023-01-07T14:17:53.685Z,100513.91
2023-01-07T14:20:29.223Z,100503.38
2023-01-07T14:23:20.160Z,100501.98
2023-01-07T14:26:10.691Z,100500.98
2023-01-07T14:29:10.727Z,100502.36
2023-01-07T14:31:39.337Z,100498.44
2023-01-07T14:34:19.359Z,100491.90
2023-01-07T14:37:05.110Z,100485.70
2023-01-07T14:39:34.795Z,100482.70
2023-01-07T14:42:20.892Z,100492.84
2023-01-07T14:44:51.330Z,100489.38
2023-01-07T14:47:58.065Z,100490.33
2023-01-07T14:50:42.959Z,100483.35
2023-01-07T14:53:54.605Z,100479.58
2023-01-07T14:56:36.334Z,100479.98
2023-01-07T14:59:31.736Z,100483.25
2023-01-07T15:02:17.112Z,100481.20
2023-01-07T15:04:54.105Z,100477.06
2023-01-07T15:07:26.951Z,100469.47
2023-01-07T15:10:17.179Z,100467.58
2023-01-07T15:12:55.934Z,100466.70
2023-01-07T15:15:54.932Z,100470.16
2023-01-07T15:18:23.737Z,100469.65
2023-01-07T15:21:10.891Z,100471.72
2023-01-07T15:24:03.660Z,100471.21
2023-01-07T15:26:43.678Z,100469.16
2023-01-07T15:29:57.568Z,100472.63
2023-01-07T15:32:52.126Z,100468.69
2023-01-07T15:35:22.728Z,100470.77
2023-01-07T15:37:52.237Z,100470.46
2023-01-07T15:40:25.004Z,100477.73
2023-01-07T15:42:57.706Z,100475.30
2023-01-07T15:45:28.834Z,100475.31
2023-01-07T15:48:13.359Z,100472.39
2023-01-07T15:50:45.860Z,100471.54
2023-01-07T15:53:14.245Z,100467.05
2023-01-07T15:55:52.066Z,100466.20
2023-01-07T15:58:48.984Z,100465.20
2023-01-07T16:01:23.280Z,100461.46
2023-01-07T16:03:55.265Z,100458.05
2023-01-07T16:06:32.647Z,100453.45
2023-01-07T16:09:16.898Z,100457.25
2023-01-07T16:11:46.585Z,100458.83
2023-01-07T16:14:17.907Z,100457.48
2023-01-07T16:16:46.305Z,100458.55
2023-01-07T16:19:20.549Z,100457.55
2023-01-07T16:21:55.323Z,100458.77
2023-01-07T16:24:24.329Z,100464.32
2023-01-07T16:26:55.510Z,100464.14
2023-01-07T16:29:29.936Z,100460.37
2023-01-07T16:31:59.254Z,100462.27
2023-01-07T16:34:27.564Z,100460.22
2023-01-07T16:36:58.564Z,100456.43
2023-01-07T16:39:31.619Z,100454.17
2023-01-07T16:42:18.892Z,100452.98
2023-01-07T16:44:49.744Z,100453.34
2023-01-07T16:47:26.887Z,100451.83
2023-01-07T16:50:19.564Z,100456.69
2023-01-07T16:52:56.483Z,100454.16
2023-01-07T16:55:53.323Z,100451.09
2023-01-07T16:58:40.945Z,100455.45
2023-01-07T17:01:10.685Z,100452.01
2023-01-07T17:03:50.402Z,100447.70
2023-01-07T17:06:27.024Z,100445.27
2023-01-07T17:08:56.812Z,100445.24
2023-01-07T17:11:38.434Z,100444.54
2023-01-07T17:14:34.209Z,100446.93
2023-01-07T17:17:18.514Z,100448.45
2023-01-07T17:19:53.725Z,100440.69
2023-01-07T17:22:40.011Z,100438.75
2023-01-07T17:25:15.687Z,100440.30
2023-01-07T17:28:08.630Z,100440.30
2023-01-07T17:30:37.786Z,100435.80
2023-01-07T17:33:06.428Z,100434.90
2023-01-07T17:35:46.824Z,100433.33
2023-01-07T17:38:16.886Z,100425.38
2023-01-07T17:40:45.773Z,100417.43
2023-01-07T17:43:34.326Z,100416.80
2023-01-07T17:46:04.111Z,100419.30
2023-01-07T17:48:34.048Z,100424.94
2023-01-07T17:51:04.767Z,100426.06
2023-01-07T17:53:39.589Z,100425.80
2023-01-07T17:56:08.299Z,100427.60
2023-01-07T17:58:38.898Z,100428.16
2023-01-07T18:01:10.399Z,100427.28
2023-01-07T18:03:39.136Z,100427.77
2023-01-07T18:06:18.140Z,100425.83
2023-01-07T18:08:48.082Z,100426.30
2023-01-07T18:11:41.428Z,100427.00
2023-01-07T18:14:13.944Z,100423.08
2023-01-07T18:16:43.025Z,100421.58
2023-01-07T18:19:13.616Z,100423.19
2023-01-07T18:21:42.422Z,100424.46
2023-01-07T18:24:19.972Z,100422.98
2023-01-07T18:26:48.435Z,100422.35
2023-01-07T18:29:16.744Z,100422.59
2023-01-07T18:31:45.497Z,100419.73
2023-01-07T18:34:16.409Z,100415.19
2023-01-07T18:36:47.257Z,100412.39
2023-01-07T18:39:19.356Z,100413.84
2023-01-07T18:41:51.615Z,100412.40
2023-01-07T18:44:21.883Z,100414.39
2023-01-07T18:46:50.179Z,100412.06
2023-01-07T18:49:18.573Z,100408.86
2023-01-07T18:51:48.311Z,100409.27
2023-01-07T18:54:17.024Z,100410.36
2023-01-07T18:56:48.093Z,100406.46
2023-01-07T18:59:16.586Z,100404.95
2023-01-07T19:01:45.263Z,100402.40
2023-01-07T19:04:13.778Z,100401.73
2023-01-07T19:06:42.264Z,100404.14
2023-01-07T19:09:10.588Z,100405.35
2023-01-07T19:11:38.863Z,100401.73
2023-01-07T19:14:12.348Z,100401.90
2023-01-07T19:16:40.938Z,100398.65
2023-01-07T19:19:10.226Z,100397.64
2023-01-07T19:21:38.855Z,100393.85
2023-01-07T19:24:07.434Z,100392.83
2023-01-07T19:26:35.837Z,100391.80
2023-01-07T19:29:04.299Z,100389.05
2023-01-07T19:31:32.843Z,100385.44
2023-01-07T19:34:04.200Z,100385.09
2023-01-07T19:36:32.646Z,100383.23
2023-01-07T19:39:00.988Z,100376.23
2023-01-07T19:41:29.624Z,100377.12
2023-01-07T19:44:00.011Z,100380.77
2023-01-07T19:46:28.716Z,100382.14
2023-01-07T19:48:57.163Z,100379.23
2023-01-07T19:51:25.486Z,100379.21
2023-01-07T19:53:54.055Z,100376.94
2023-01-07T19:56:22.355Z,100371.23
2023-01-07T19:58:54.194Z,100373.45
2023-01-07T20:01:26.710Z,100371.16
2023-01-07T20:03:57.372Z,100366.33
2023-01-07T20:06:30.257Z,100369.71
2023-01-07T20:08:58.943Z,100367.42
2023-01-07T20:11:27.244Z,100368.56
2023-01-07T20:13:55.606Z,100365.39
2023-01-07T20:16:24.947Z,100362.79
2023-01-07T20:18:55.337Z,100366.23
2023-01-07T20:21:28.523Z,100365.41
2023-01-07T20:23:56.850Z,100358.89
2023-01-07T20:26:31.104Z,100351.15
2023-01-07T20:29:00.543Z,100348.26
2023-01-07T20:31:31.810Z,100347.63
2023-01-07T20:34:00.530Z,100349.75
2023-01-07T20:36:31.813Z,100349.66
2023-01-07T20:39:05.920Z,100346.98
2023-01-07T20:41:36.504Z,100342.44
2023-01-07T20:44:08.961Z,100334.11
2023-01-07T20:46:43.374Z,100333.70
2023-01-07T20:49:12.805Z,100329.02
2023-01-07T20:51:41.148Z,100327.77
2023-01-07T20:54:09.547Z,100324.77
2023-01-07T20:56:38.132Z,100325.57
2023-01-07T20:59:06.543Z,100324.77
2023-01-07T21:01:35.185Z,100321.77
2023-01-07T21:04:03.853Z,100323.23
2023-01-07T21:06:32.289Z,100327.23
2023-01-07T21:09:00.856Z,100325.23
2023-01-07T21:11:29.384Z,100320.13
2023-01-07T21:13:57.825Z,100319.84
2023-01-07T21:16:27.719Z,100322.27
2023-01-07T21:18:56.674Z,100318.92
2023-01-07T21:21:26.762Z,100313.83
2023-01-07T21:23:55.477Z,100308.20
2023-01-07T21:26:25.132Z,100303.98
2023-01-07T21:28:56.304Z,100298.37
2023-01-07T21:31:26.900Z,100294.16
2023-01-07T21:33:57.104Z,100292.86
2023-01-07T21:36:26.964Z,100287.71
2023-01-07T21:38:57.256Z,100286.36
2023-01-07T21:41:27.408Z,100286.59
2023-01-07T21:43:56.375Z,100278.75
2023-01-07T21:46:24.790Z,100278.45
2023-01-07T21:48:53.247Z,100275.94
2023-01-07T21:51:25.135Z,100274.27
2023-01-07T21:53:58.466Z,100272.24
2023-01-07T21:56:32.535Z,100264.24
2023-01-07T21:59:00.959Z,100264.64
2023-01-07T22:01:29.700Z,100261.92
2023-01-07T22:03:59.446Z,100260.43
2023-01-07T22:06:36.080Z,100254.98
2023-01-07T22:09:09.114Z,100245.89
2023-01-07T22:11:39.312Z,100239.95
2023-01-07T22:14:12.083Z,100236.02
2023-01-07T22:16:40.517Z,100237.94
2023-01-07T22:19:11.343Z,100236.79
2023-01-07T22:21:40.079Z,100235.94
2023-01-07T22:24:08.554Z,100234.58
2023-01-07T22:26:37.175Z,100235.64
2023-01-07T22:29:08.014Z,100234.11
2023-01-07T22:31:37.397Z,100227.63
2023-01-07T22:34:07.114Z,100224.04
2023-01-07T22:36:35.383Z,100221.14
2023-01-07T22:39:10.564Z,100216.02
2023-01-07T22:41:39.393Z,100212.80
2023-01-07T22:44:13.089Z,100206.98
2023-01-07T22:46:45.888Z,100210.96
2023-01-07T22:49:15.173Z,100210.31
2023-01-07T22:51:48.421Z,100211.52
2023-01-07T22:54:17.943Z,100208.08
2023-01-07T22:56:47.064Z,100201.59
2023-01-07T22:59:15.617Z,100196.46
2023-01-07T23:01:44.039Z,100194.80
2023-01-07T23:04:12.542Z,100188.98
2023-01-07T23:06:40.900Z,100183.00
2023-01-07T23:09:09.284Z,100176.14
2023-01-07T23:11:49.727Z,100172.58
2023-01-07T23:14:22.863Z,100166.77
2023-01-07T23:16:52.476Z,100167.98
2023-01-07T23:19:21.845Z,100169.02
2023-01-07T23:21:53.648Z,100160.65
2023-01-07T23:24:23.611Z,100161.86
2023-01-07T23:26:54.402Z,100157.56
2023-01-07T23:29:23.300Z,100160.84
2023-01-07T23:31:51.739Z,100159.50
2023-01-07T23:34:20.310Z,100161.56
2023-01-07T23:36:48.785Z,100160.20
2023-01-07T23:39:17.321Z,100155.24
2023-01-07T23:41:46.043Z,100153.56
2023-01-07T23:44:14.585Z,100147.73
2023-01-07T23:46:43.084Z,100142.80
2023-01-07T23:49:11.488Z,100138.70
2023-01-07T23:51:41.431Z,100137.70
2023-01-07T23:54:10.290Z,100132.92
2023-01-07T23:56:38.762Z,100127.98
2023-01-07T23:59:07.381Z,100119.94
